Time;durP1;ratioP1;P1;durP2;ratioP2;P2;SDS_P1;SDS_P2;PMS_P1;PMS_P2;Temp;Humidity;BMP_temperature;BMP_pressure;BME280_temperature;BME280_humidity;BME280_pressure;Samples;Min_cycle;Max_cycle;Signal;HPM_P1;HPM_P2
2023/07/10 00:02:09;;;;;;;5.75;3.50;;;;;;;;;;5037948;28;20071;-84
2023/07/10 00:04:34;;;;;;;6.78;3.53;;;;;;;;;;5032658;28;20171;-82
2023/07/10 00:06:59;;;;;;;5.43;3.28;;;;;;;;;;5012490;28;20120;-84
2023/07/10 00:09:45;;;;;;;6.63;3.55;;;;;;;;;;5019481;28;20041;-83
2023/07/10 00:12:20;;;;;;;5.95;3.60;;;;;;;;;;4996144;28;20041;-83
2023/07/10 00:14:48;;;;;;;5.63;3.60;;;;;;;;;;4956977;28;20030;-84
2023/07/10 00:17:15;;;;;;;6.90;3.30;;;;;;;;;;4985163;28;20037;-84
2023/07/10 00:19:41;;;;;;;6.93;3.65;;;;;;;;;;4969962;28;20513;-83
2023/07/10 00:22:06;;;;;;;6.35;3.45;;;;;;;;;;4964429;28;20100;-85
2023/07/10 00:24:32;;;;;;;7.68;3.67;;;;;;;;;;4970582;28;20046;-83
2023/07/10 00:26:57;;;;;;;7.07;3.50;;;;;;;;;;4967074;28;20104;-83
2023/07/10 00:29:31;;;;;;;6.20;3.85;;;;;;;;;;4972398;28;20152;-83
2023/07/10 00:31:57;;;;;;;7.38;3.88;;;;;;;;;;4968935;28;20035;-84
2023/07/10 00:34:25;;;;;;;5.50;3.30;;;;;;;;;;4959418;28;20038;-83
2023/07/10 00:36:51;;;;;;;6.35;3.70;;;;;;;;;;4963981;28;20034;-82
2023/07/10 00:39:28;;;;;;;8.43;3.72;;;;;;;;;;4973883;28;20053;-82
2023/07/10 00:41:59;;;;;;;5.20;3.40;;;;;;;;;;4963086;28;20034;-83
2023/07/10 00:44:38;;;;;;;5.53;3.40;;;;;;;;;;4956699;28;20108;-83
2023/07/10 00:47:13;;;;;;;6.45;3.58;;;;;;;;;;4968957;28;20034;-83
2023/07/10 00:49:45;;;;;;;7.03;3.70;;;;;;;;;;4991165;28;20568;-83
2023/07/10 00:52:19;;;;;;;5.15;3.60;;;;;;;;;;5019973;28;20119;-83
2023/07/10 00:54:47;;;;;;;5.07;3.28;;;;;;;;;;5004657;28;20060;-83
2023/07/10 00:57:18;;;;;;;6.20;3.10;;;;;;;;;;5001956;28;20496;-84
2023/07/10 00:59:44;;;;;;;6.85;3.90;;;;;;;;;;5038839;28;20033;-83
2023/07/10 01:02:39;;;;;;;6.78;3.95;;;;;;;;;;5022245;28;20037;-83
2023/07/10 01:05:07;;;;;;;5.40;3.40;;;;;;;;;;5009233;28;20524;-83
2023/07/10 01:07:38;;;;;;;6.60;3.63;;;;;;;;;;5006153;28;20505;-82
2023/07/10 01:10:07;;;;;;;6.18;3.90;;;;;;;;;;5005298;28;20512;-82
2023/07/10 01:12:33;;;;;;;7.85;3.92;;;;;;;;;;5037681;28;20570;-83
2023/07/10 01:14:58;;;;;;;5.93;3.95;;;;;;;;;;5036373;28;20045;-83
2023/07/10 01:17:32;;;;;;;6.38;3.92;;;;;;;;;;5023686;28;20033;-83
2023/07/10 01:20:01;;;;;;;6.28;3.70;;;;;;;;;;5037846;28;20052;-83
2023/07/10 01:22:27;;;;;;;6.13;3.60;;;;;;;;;;5041624;28;20084;-83
2023/07/10 01:24:52;;;;;;;5.93;3.80;;;;;;;;;;5015894;28;20568;-82
2023/07/10 01:27:20;;;;;;;5.35;3.65;;;;;;;;;;5020938;28;20180;-83
2023/07/10 01:29:48;;;;;;;;;;;;;;;;;;5032712;28;20033;-83
2023/07/10 01:32:21;;;;;;;6.85;3.95;;;;;;;;;;5028110;28;19916;-83
2023/07/10 01:34:50;;;;;;;10.75;3.90;;;;;;;;;;5011142;28;20049;-83
2023/07/10 01:37:16;;;;;;;5.78;3.55;;;;;;;;;;5030150;28;20052;-82
2023/07/10 01:39:46;;;;;;;7.13;4.10;;;;;;;;;;5034112;28;20059;-82
2023/07/10 01:42:12;;;;;;;8.90;3.60;;;;;;;;;;5036409;28;20033;-82
2023/07/10 01:44:40;;;;;;;7.22;3.70;;;;;;;;;;5007069;28;20025;-82
2023/07/10 01:47:07;;;;;;;;;;;;;;;;;;5030305;28;20037;-82
2023/07/10 01:49:46;;;;;;;;;;;;;;;;;;5017442;28;19920;-83
2023/07/10 01:52:15;;;;;;;8.63;4.32;;;;;;;;;;5028719;28;19913;-83
2023/07/10 01:54:44;;;;;;;7.35;3.78;;;;;;;;;;5036219;28;20625;-82
2023/07/10 01:57:11;;;;;;;6.47;3.60;;;;;;;;;;5036096;28;20033;-83
2023/07/10 01:59:37;;;;;;;9.25;3.85;;;;;;;;;;5034752;28;20147;-84
2023/07/10 02:02:04;;;;;;;6.45;3.63;;;;;;;;;;5028018;28;20497;-84
2023/07/10 02:04:29;;;;;;;7.38;3.88;;;;;;;;;;5028204;28;20049;-84
2023/07/10 02:06:55;;;;;;;6.10;3.60;;;;;;;;;;5020417;28;20037;-84
2023/07/10 02:09:24;;;;;;;5.88;3.75;;;;;;;;;;5021342;28;20132;-83
2023/07/10 02:11:54;;;;;;;7.95;4.05;;;;;;;;;;5024525;28;20037;-84
2023/07/10 02:14:19;;;;;;;6.03;3.40;;;;;;;;;;5052881;28;20757;-84
2023/07/10 02:16:45;;;;;;;7.68;3.72;;;;;;;;;;5034541;28;20129;-85
2023/07/10 02:19:20;;;;;;;6.63;3.55;;;;;;;;;;5035517;28;20040;-84
2023/07/10 02:21:46;;;;;;;5.88;3.70;;;;;;;;;;5026965;28;20063;-84
2023/07/10 02:24:11;;;;;;;7.45;3.60;;;;;;;;;;5020045;28;20041;-84
2023/07/10 02:26:53;;;;;;;6.43;3.60;;;;;;;;;;5029622;28;20030;-83
2023/07/10 02:29:18;;;;;;;5.82;3.60;;;;;;;;;;5025605;28;20041;-84
2023/07/10 02:31:44;;;;;;;5.55;3.72;;;;;;;;;;5007443;28;20037;-84
2023/07/10 02:34:42;;;;;;;7.28;3.75;;;;;;;;;;5013632;28;20136;-84
2023/07/10 02:37:07;;;;;;;7.35;3.83;;;;;;;;;;4988096;28;20581;-84
2023/07/10 02:39:33;;;;;;;6.00;3.58;;;;;;;;;;4999716;28;20071;-85
2023/07/10 02:42:18;;;;;;;7.45;3.65;;;;;;;;;;4988954;28;20044;-84
2023/07/10 02:44:46;;;;;;;9.10;4.10;;;;;;;;;;4987986;28;20041;-85
2023/07/10 02:47:21;;;;;;;6.72;3.88;;;;;;;;;;5011623;28;20484;-84
2023/07/10 02:49:46;;;;;;;7.20;3.45;;;;;;;;;;4991740;28;20432;-85
2023/07/10 02:52:12;;;;;;;6.93;3.45;;;;;;;;;;5000157;28;20037;-83
2023/07/10 02:54:37;;;;;;;6.78;3.80;;;;;;;;;;5017680;28;20124;-83
2023/07/10 02:57:03;;;;;;;6.13;3.60;;;;;;;;;;5022539;28;20038;-84
2023/07/10 02:59:29;;;;;;;6.70;3.55;;;;;;;;;;5001325;28;20681;-83
2023/07/10 03:01:54;;;;;;;6.75;3.67;;;;;;;;;;5033002;28;20052;-83
2023/07/10 03:04:20;;;;;;;6.30;3.67;;;;;;;;;;5031949;28;20037;-84
2023/07/10 03:06:48;;;;;;;7.90;3.90;;;;;;;;;;5032875;28;20037;-85
2023/07/10 03:09:16;;;;;;;5.90;3.50;;;;;;;;;;5032315;28;20057;-83
2023/07/10 03:11:41;;;;;;;5.68;3.50;;;;;;;;;;5021696;28;20342;-82
2023/07/10 03:14:07;;;;;;;6.47;3.85;;;;;;;;;;5034004;28;20040;-83
2023/07/10 03:16:32;;;;;;;5.47;3.45;;;;;;;;;;5012790;28;20603;-83
2023/07/10 03:18:58;;;;;;;5.03;3.15;;;;;;;;;;5022096;28;20051;-85
2023/07/10 03:21:31;;;;;;;6.00;3.55;;;;;;;;;;5021719;28;20033;-83
2023/07/10 03:23:57;;;;;;;5.47;3.10;;;;;;;;;;5013033;28;20033;-83
2023/07/10 03:26:22;;;;;;;5.40;3.50;;;;;;;;;;5016755;28;20511;-83
2023/07/10 03:29:07;;;;;;;5.55;3.38;;;;;;;;;;4983862;28;20114;-83
2023/07/10 03:31:32;;;;;;;7.28;3.60;;;;;;;;;;5022482;28;20136;-84
2023/07/10 03:33:58;;;;;;;5.45;3.40;;;;;;;;;;5050630;28;20041;-84
2023/07/10 03:36:23;;;;;;;5.25;3.40;;;;;;;;;;5036785;28;20061;-83
2023/07/10 03:38:49;;;;;;;6.03;3.47;;;;;;;;;;5020164;28;20072;-85
2023/07/10 03:41:14;;;;;;;5.63;3.20;;;;;;;;;;5019992;28;20573;-83
2023/07/10 03:43:48;;;;;;;6.95;3.55;;;;;;;;;;5002402;28;20034;-83
2023/07/10 03:46:17;;;;;;;7.63;3.58;;;;;;;;;;5014813;28;20599;-84
2023/07/10 03:48:43;;;;;;;6.97;3.30;;;;;;;;;;5013756;28;20506;-83
2023/07/10 03:51:30;;;;;;;5.80;3.22;;;;;;;;;;4989399;28;20033;-83
2023/07/10 03:53:55;;;;;;;;;;;;;;;;;;5019069;28;20417;-84
2023/07/10 03:56:21;;;;;;;6.15;3.30;;;;;;;;;;5000971;28;19912;-83
2023/07/10 03:58:46;;;;;;;6.28;3.10;;;;;;;;;;5009323;28;20053;-83
2023/07/10 04:01:13;;;;;;;7.55;3.50;;;;;;;;;;5004524;28;20047;-84
2023/07/10 04:03:39;;;;;;;5.07;3.20;;;;;;;;;;5035028;28;20389;-83
2023/07/10 04:06:07;;;;;;;6.20;3.50;;;;;;;;;;5008913;28;20041;-83
2023/07/10 04:08:37;;;;;;;6.32;3.50;;;;;;;;;;5024900;28;20468;-83
2023/07/10 04:11:06;;;;;;;6.38;3.20;;;;;;;;;;5012402;28;20112;-84
2023/07/10 04:13:31;;;;;;;6.03;3.05;;;;;;;;;;5022072;28;20084;-83
2023/07/10 04:16:04;;;;;;;5.43;3.22;;;;;;;;;;5014088;28;20543;-85
2023/07/10 04:18:34;;;;;;;6.72;3.17;;;;;;;;;;5029852;28;20095;-85
2023/07/10 04:21:02;;;;;;;4.82;3.05;;;;;;;;;;5017111;28;20170;-84
2023/07/10 04:23:27;;;;;;;7.25;3.15;;;;;;;;;;5011520;28;20515;-84
2023/07/10 04:25:55;;;;;;;7.65;3.60;;;;;;;;;;5029869;28;20028;-83
2023/07/10 04:28:23;;;;;;;6.13;3.42;;;;;;;;;;5012118;28;20370;-86
2023/07/10 04:30:48;;;;;;;5.63;3.63;;;;;;;;;;5032763;28;20041;-86
2023/07/10 04:33:18;;;;;;;6.03;3.15;;;;;;;;;;5031669;28;20044;-85
2023/07/10 04:35:51;;;;;;;6.03;3.60;;;;;;;;;;5035496;28;20029;-86
2023/07/10 04:38:16;;;;;;;5.95;3.17;;;;;;;;;;5032128;28;20041;-85
2023/07/10 04:41:12;;;;;;;5.75;3.22;;;;;;;;;;5024533;28;20084;-86
2023/07/10 04:43:37;;;;;;;6.43;2.97;;;;;;;;;;5005626;28;20065;-86
2023/07/10 04:46:10;;;;;;;8.25;3.28;;;;;;;;;;5031962;28;20084;-85
2023/07/10 04:48:35;;;;;;;6.22;3.58;;;;;;;;;;5025851;28;20186;-84
2023/07/10 04:51:03;;;;;;;7.40;3.17;;;;;;;;;;5048630;28;20732;-85
2023/07/10 04:53:37;;;;;;;6.35;3.15;;;;;;;;;;5032517;28;20029;-84
2023/07/10 04:56:06;;;;;;;6.68;2.90;;;;;;;;;;5008053;28;20045;-85
2023/07/10 04:58:51;;;;;;;8.75;3.60;;;;;;;;;;5028384;28;20572;-84
2023/07/10 05:01:17;;;;;;;6.45;3.35;;;;;;;;;;5025810;28;20068;-85
2023/07/10 05:03:46;;;;;;;6.47;3.53;;;;;;;;;;5030648;28;20499;-88
2023/07/10 05:06:47;;;;;;;6.22;3.50;;;;;;;;;;5011049;28;20352;-87
2023/07/10 05:09:19;;;;;;;6.72;3.45;;;;;;;;;;4999163;28;20096;-85
2023/07/10 05:11:45;;;;;;;6.45;3.47;;;;;;;;;;5018739;28;20131;-79
2023/07/10 05:14:10;;;;;;;7.55;3.47;;;;;;;;;;4998474;28;20127;-79
2023/07/10 05:16:36;;;;;;;9.25;4.10;;;;;;;;;;5010128;28;20462;-80
2023/07/10 05:19:02;;;;;;;7.13;3.92;;;;;;;;;;5034327;28;20132;-80
2023/07/10 05:21:28;;;;;;;7.20;4.00;;;;;;;;;;5014844;28;20038;-80
2023/07/10 05:23:53;;;;;;;7.35;4.30;;;;;;;;;;5032090;28;20466;-80
2023/07/10 05:26:19;;;;;;;8.82;4.72;;;;;;;;;;5015727;28;20045;-80
2023/07/10 05:28:48;;;;;;;8.73;4.88;;;;;;;;;;5011029;28;20342;-80
2023/07/10 05:31:14;;;;;;;7.32;4.72;;;;;;;;;;5008613;28;20095;-79
2023/07/10 05:33:40;;;;;;;7.85;5.20;;;;;;;;;;5004256;28;20378;-81
2023/07/10 05:36:10;;;;;;;8.18;4.70;;;;;;;;;;5024276;28;20034;-79
2023/07/10 05:38:36;;;;;;;6.60;4.78;;;;;;;;;;5049966;28;20489;-79
2023/07/10 05:41:02;;;;;;;9.93;4.68;;;;;;;;;;5032084;28;20462;-80
2023/07/10 05:43:29;;;;;;;9.25;5.15;;;;;;;;;;5018885;28;20036;-80
2023/07/10 05:45:54;;;;;;;7.93;5.47;;;;;;;;;;5036557;28;20076;-80
2023/07/10 05:48:22;;;;;;;10.07;5.78;;;;;;;;;;5020161;28;20053;-80
2023/07/10 05:50:48;;;;;;;9.45;5.07;;;;;;;;;;5001816;28;20042;-80
2023/07/10 05:53:18;;;;;;;8.65;5.43;;;;;;;;;;5003864;28;20505;-81
2023/07/10 05:55:44;;;;;;;9.38;5.45;;;;;;;;;;5024249;28;20037;-81
2023/07/10 05:58:10;;;;;;;9.67;5.57;;;;;;;;;;5036799;28;20041;-80
2023/07/10 06:00:36;;;;;;;8.75;5.75;;;;;;;;;;5025935;28;20063;-81
2023/07/10 06:03:01;;;;;;;8.50;6.13;;;;;;;;;;5020359;28;20114;-80
2023/07/10 06:05:29;;;;;;;8.98;6.03;;;;;;;;;;5027236;28;20164;-81
2023/07/10 06:07:56;;;;;;;9.45;5.65;;;;;;;;;;5012554;28;20072;-82
2023/07/10 06:10:21;;;;;;;9.95;5.80;;;;;;;;;;5026377;28;20041;-80
2023/07/10 06:12:47;;;;;;;8.77;5.63;;;;;;;;;;5027022;28;20516;-82
2023/07/10 06:15:12;;;;;;;12.40;6.10;;;;;;;;;;5011677;28;20037;-83
2023/07/10 06:17:38;;;;;;;10.73;6.18;;;;;;;;;;5017132;28;20036;-82
2023/07/10 06:20:04;;;;;;;11.85;5.88;;;;;;;;;;5023988;28;20333;-82
2023/07/10 06:22:31;;;;;;;10.13;5.97;;;;;;;;;;5022164;28;20032;-81
2023/07/10 06:24:56;;;;;;;10.37;5.63;;;;;;;;;;5027707;28;20408;-82
2023/07/10 06:27:21;;;;;;;10.10;6.45;;;;;;;;;;5032939;28;20041;-84
2023/07/10 06:29:47;;;;;;;9.52;5.28;;;;;;;;;;5039273;28;20037;-81
2023/07/10 06:32:12;;;;;;;9.75;5.55;;;;;;;;;;5013741;28;20090;-86
2023/07/10 06:34:38;;;;;;;9.85;6.65;;;;;;;;;;5021737;28;20041;-86
2023/07/10 06:37:06;;;;;;;8.57;5.78;;;;;;;;;;4994105;28;20038;-86
2023/07/10 06:39:32;;;;;;;11.65;5.72;;;;;;;;;;5004342;28;20064;-85
2023/07/10 06:41:58;;;;;;;9.32;6.03;;;;;;;;;;5020967;28;20124;-83
2023/07/10 06:44:23;;;;;;;8.30;5.15;;;;;;;;;;5035575;28;20033;-81
2023/07/10 06:46:51;;;;;;;7.90;5.05;;;;;;;;;;5025925;28;20504;-80
2023/07/10 06:49:16;;;;;;;;;;;;;;;;;;5016388;28;20040;-81
2023/07/10 06:51:41;;;;;;;11.57;5.75;;;;;;;;;;5006493;28;19917;-81
2023/07/10 06:54:08;;;;;;;8.73;5.70;;;;;;;;;;5023888;28;20033;-81
2023/07/10 06:56:34;;;;;;;10.65;5.95;;;;;;;;;;5036038;28;20370;-80
2023/07/10 06:58:59;;;;;;;8.18;5.55;;;;;;;;;;5023957;28;20048;-80
2023/07/10 07:01:25;;;;;;;10.07;5.93;;;;;;;;;;5033132;28;20041;-81
2023/07/10 07:03:50;;;;;;;8.75;5.45;;;;;;;;;;5032652;28;20515;-80
2023/07/10 07:06:15;;;;;;;9.18;5.25;;;;;;;;;;5023935;28;20041;-80
2023/07/10 07:08:51;;;;;;;9.00;5.22;;;;;;;;;;5025224;28;20441;-79
2023/07/10 07:11:17;;;;;;;7.45;5.00;;;;;;;;;;5030356;28;20068;-80
2023/07/10 07:13:42;;;;;;;9.80;5.18;;;;;;;;;;5034193;28;20038;-80
2023/07/10 07:16:08;;;;;;;9.70;4.80;;;;;;;;;;5023924;28;20037;-80
2023/07/10 07:18:54;;;;;;;9.98;5.20;;;;;;;;;;4987193;28;20030;-81
2023/07/10 07:21:20;;;;;;;9.95;5.18;;;;;;;;;;4963215;28;20137;-80
2023/07/10 07:23:45;;;;;;;8.23;4.70;;;;;;;;;;4930336;28;20106;-80
2023/07/10 07:26:12;;;;;;;11.38;5.20;;;;;;;;;;4947897;28;20376;-80
2023/07/10 07:28:37;;;;;;;8.63;5.20;;;;;;;;;;4931646;28;20442;-79
2023/07/10 07:31:04;;;;;;;9.13;5.40;;;;;;;;;;4931511;28;20125;-81
2023/07/10 07:33:30;;;;;;;8.95;5.22;;;;;;;;;;4948835;28;20113;-80
2023/07/10 07:35:55;;;;;;;7.70;4.93;;;;;;;;;;4932412;28;20049;-80
2023/07/10 07:38:21;;;;;;;11.20;5.00;;;;;;;;;;4963584;28;20038;-80
2023/07/10 07:40:49;;;;;;;10.05;4.63;;;;;;;;;;4943584;28;20550;-80
2023/07/10 07:43:15;;;;;;;7.00;4.57;;;;;;;;;;4934792;28;20118;-80
2023/07/10 07:45:49;;;;;;;8.82;4.70;;;;;;;;;;4931200;28;20098;-80
2023/07/10 07:48:15;;;;;;;8.75;4.57;;;;;;;;;;4948704;28;20078;-81
2023/07/10 07:50:40;;;;;;;8.20;4.80;;;;;;;;;;4930046;28;20050;-81
2023/07/10 07:53:06;;;;;;;8.15;4.43;;;;;;;;;;4948821;28;20062;-80
2023/07/10 07:55:31;;;;;;;8.75;4.72;;;;;;;;;;4932099;28;20768;-81
2023/07/10 07:57:57;;;;;;;6.75;4.13;;;;;;;;;;4960462;28;20045;-80
2023/07/10 08:00:26;;;;;;;5.55;4.03;;;;;;;;;;5014032;28;20120;-80
2023/07/10 08:02:51;;;;;;;6.60;4.20;;;;;;;;;;5035230;28;20035;-80
2023/07/10 08:05:17;;;;;;;7.57;3.95;;;;;;;;;;5031854;28;20033;-81
2023/07/10 08:07:42;;;;;;;8.15;4.50;;;;;;;;;;5034056;28;20040;-80
2023/07/10 08:10:08;;;;;;;7.43;3.97;;;;;;;;;;5000477;28;20559;-80
2023/07/10 08:12:33;;;;;;;8.65;3.97;;;;;;;;;;5017238;28;20029;-80
2023/07/10 08:15:02;;;;;;;7.35;4.28;;;;;;;;;;5017115;28;20060;-81
2023/07/10 08:17:28;;;;;;;8.45;4.38;;;;;;;;;;5022818;28;20109;-81
2023/07/10 08:19:53;;;;;;;10.77;4.25;;;;;;;;;;5048996;28;20132;-81
2023/07/10 08:22:19;;;;;;;6.35;4.30;;;;;;;;;;5020837;28;20037;-80
2023/07/10 08:24:45;;;;;;;7.35;3.92;;;;;;;;;;5023585;28;20049;-81
2023/07/10 08:27:10;;;;;;;6.13;3.80;;;;;;;;;;5009467;28;20040;-81
2023/07/10 08:29:36;;;;;;;6.45;4.28;;;;;;;;;;5014986;28;20389;-81
2023/07/10 08:32:01;;;;;;;8.60;3.85;;;;;;;;;;5007250;28;20103;-81
2023/07/10 08:34:29;;;;;;;7.32;4.28;;;;;;;;;;5021782;28;20087;-81
2023/07/10 08:36:54;;;;;;;;;;;;;;;;;;5032076;28;20055;-82
2023/07/10 08:39:24;;;;;;;7.03;4.17;;;;;;;;;;5017559;28;19913;-82
2023/07/10 08:41:55;;;;;;;6.13;4.22;;;;;;;;;;5018663;28;20044;-81
2023/07/10 08:44:23;;;;;;;8.52;4.18;;;;;;;;;;5024873;28;20108;-81
2023/07/10 08:46:48;;;;;;;6.07;3.90;;;;;;;;;;5018363;28;20044;-81
2023/07/10 08:49:17;;;;;;;6.28;3.90;;;;;;;;;;5032741;28;20393;-81
2023/07/10 08:52:13;;;;;;;6.07;4.10;;;;;;;;;;5034716;28;20623;-81
2023/07/10 08:54:39;;;;;;;5.85;3.90;;;;;;;;;;5035826;28;20130;-81
2023/07/10 08:57:26;;;;;;;6.10;3.83;;;;;;;;;;5046244;28;20088;-82
2023/07/10 09:00:07;;;;;;;8.10;4.18;;;;;;;;;;5036411;28;20511;-81
2023/07/10 09:02:38;;;;;;;6.25;4.30;;;;;;;;;;5029469;28;20058;-82
2023/07/10 09:05:08;;;;;;;5.88;3.90;;;;;;;;;;5025741;28;20037;-81
2023/07/10 09:07:42;;;;;;;6.25;3.70;;;;;;;;;;5038265;28;20543;-80
2023/07/10 09:10:15;;;;;;;5.72;3.60;;;;;;;;;;5021849;28;20091;-81
2023/07/10 09:12:42;;;;;;;6.13;3.90;;;;;;;;;;4990193;28;20037;-81
2023/07/10 09:15:25;;;;;;;5.95;3.75;;;;;;;;;;4997203;28;20521;-81
2023/07/10 09:18:14;;;;;;;5.90;3.58;;;;;;;;;;5035462;28;20037;-81
2023/07/10 09:20:43;;;;;;;6.68;3.80;;;;;;;;;;5036463;28;20455;-82
2023/07/10 09:23:29;;;;;;;5.10;3.38;;;;;;;;;;5026373;28;20527;-82
2023/07/10 09:25:57;;;;;;;6.07;3.28;;;;;;;;;;5013315;28;20582;-83
2023/07/10 09:28:23;;;;;;;5.45;3.78;;;;;;;;;;5017601;28;20044;-82
2023/07/10 09:31:03;;;;;;;6.20;3.55;;;;;;;;;;5027334;28;20037;-82
2023/07/10 09:33:52;;;;;;;5.90;4.00;;;;;;;;;;5033997;28;20037;-82
2023/07/10 09:36:20;;;;;;;6.03;3.60;;;;;;;;;;5038211;28;20993;-82
2023/07/10 09:38:47;;;;;;;6.32;3.60;;;;;;;;;;5018209;28;20040;-82
2023/07/10 09:41:27;;;;;;;5.25;3.60;;;;;;;;;;5052889;28;20041;-83
2023/07/10 09:43:59;;;;;;;4.70;3.33;;;;;;;;;;5039325;28;20094;-83
2023/07/10 09:46:58;;;;;;;4.90;3.63;;;;;;;;;;5021965;28;20349;-83
2023/07/10 09:49:36;;;;;;;6.00;3.90;;;;;;;;;;5037266;28;20477;-82
2023/07/10 09:52:03;;;;;;;6.60;3.95;;;;;;;;;;5031524;28;20424;-84
2023/07/10 09:54:36;;;;;;;6.72;3.72;;;;;;;;;;5023677;28;20033;-81
2023/07/10 09:57:13;;;;;;;5.07;3.60;;;;;;;;;;5033576;28;20416;-81
2023/07/10 09:59:39;;;;;;;5.00;3.38;;;;;;;;;;5025507;28;20555;-82
2023/07/10 10:02:38;;;;;;;4.70;3.60;;;;;;;;;;5010697;28;20065;-82
2023/07/10 10:05:13;;;;;;;5.53;3.92;;;;;;;;;;5013334;28;20037;-81
2023/07/10 10:07:45;;;;;;;7.25;3.58;;;;;;;;;;5041985;28;20047;-81
2023/07/10 10:10:18;;;;;;;5.57;3.42;;;;;;;;;;5044774;28;20773;-82
2023/07/10 10:12:44;;;;;;;5.40;3.40;;;;;;;;;;5052233;28;20037;-82
2023/07/10 10:15:48;;;;;;;4.47;3.20;;;;;;;;;;5022914;28;20052;-82
2023/07/10 10:18:42;;;;;;;5.63;3.30;;;;;;;;;;4977012;28;20380;-81
2023/07/10 10:21:11;;;;;;;5.75;3.20;;;;;;;;;;5039977;28;20037;-81
2023/07/10 10:23:38;;;;;;;7.30;3.40;;;;;;;;;;5021252;28;20079;-82
2023/07/10 10:26:15;;;;;;;6.28;3.22;;;;;;;;;;5039300;28;20033;-81
2023/07/10 10:28:52;;;;;;;4.50;3.00;;;;;;;;;;5035268;28;20029;-81
2023/07/10 10:31:22;;;;;;;6.50;3.15;;;;;;;;;;5018054;28;22548;-81
2023/07/10 10:33:58;;;;;;;5.05;2.97;;;;;;;;;;5022716;28;20034;-82
2023/07/10 10:36:43;;;;;;;5.43;3.50;;;;;;;;;;5022867;28;20528;-82
2023/07/10 10:39:38;;;;;;;5.18;3.30;;;;;;;;;;5049441;28;20048;-82
2023/07/10 10:42:36;;;;;;;5.32;3.13;;;;;;;;;;5019498;28;20045;-82
2023/07/10 10:45:13;;;;;;;6.10;3.10;;;;;;;;;;5034765;28;20496;-81
2023/07/10 10:47:56;;;;;;;4.68;2.92;;;;;;;;;;5021837;28;20535;-79
2023/07/10 10:50:24;;;;;;;7.18;3.45;;;;;;;;;;5047534;28;20044;-81
2023/07/10 10:53:05;;;;;;;4.68;3.10;;;;;;;;;;5036972;28;20474;-80
2023/07/10 10:55:55;;;;;;;6.78;3.60;;;;;;;;;;5024920;28;20506;-81
2023/07/10 10:58:50;;;;;;;5.25;3.50;;;;;;;;;;5019497;28;20052;-81
2023/07/10 11:01:34;;;;;;;8.07;3.58;;;;;;;;;;5031158;28;20065;-82
2023/07/10 11:04:31;;;;;;;7.28;4.00;;;;;;;;;;5044065;28;20040;-82
2023/07/10 11:07:05;;;;;;;5.90;4.03;;;;;;;;;;5037717;28;20469;-83
2023/07/10 11:09:52;;;;;;;9.02;3.80;;;;;;;;;;5033303;28;20044;-81
2023/07/10 11:12:29;;;;;;;7.18;4.10;;;;;;;;;;5033447;28;20033;-80
2023/07/10 11:14:58;;;;;;;7.95;4.53;;;;;;;;;;5022480;28;20063;-81
2023/07/10 11:17:24;;;;;;;6.28;3.90;;;;;;;;;;5010103;28;20378;-80
2023/07/10 11:19:50;;;;;;;6.43;4.13;;;;;;;;;;5038490;28;20032;-81
2023/07/10 11:22:26;;;;;;;7.15;4.50;;;;;;;;;;5026357;28;20426;-82
2023/07/10 11:24:52;;;;;;;6.32;4.15;;;;;;;;;;5040233;28;20558;-82
2023/07/10 11:27:34;;;;;;;6.90;4.13;;;;;;;;;;5034176;28;20134;-82
2023/07/10 11:30:11;;;;;;;6.80;4.95;;;;;;;;;;5015109;28;20364;-83
2023/07/10 11:32:56;;;;;;;7.65;5.18;;;;;;;;;;5019944;28;20052;-83
2023/07/10 11:35:23;;;;;;;6.10;4.90;;;;;;;;;;5033072;28;20554;-82
2023/07/10 11:37:48;;;;;;;6.88;5.15;;;;;;;;;;5032368;28;20029;-82
2023/07/10 11:40:43;;;;;;;6.57;5.20;;;;;;;;;;5035704;28;20087;-82
2023/07/10 11:43:27;;;;;;;7.88;5.25;;;;;;;;;;5032292;28;20036;-82
2023/07/10 11:46:02;;;;;;;7.13;5.35;;;;;;;;;;5039291;28;20026;-82
2023/07/10 11:48:38;;;;;;;7.60;5.30;;;;;;;;;;5034009;28;20587;-81
2023/07/10 11:51:04;;;;;;;7.20;4.50;;;;;;;;;;5029848;28;20047;-82
2023/07/10 11:53:30;;;;;;;5.93;4.40;;;;;;;;;;5024612;28;20516;-84
2023/07/10 11:56:04;;;;;;;6.78;4.15;;;;;;;;;;5021763;28;20030;-82
2023/07/10 11:58:33;;;;;;;6.72;4.30;;;;;;;;;;5049181;28;20033;-82
2023/07/10 12:01:20;;;;;;;7.18;4.53;;;;;;;;;;5032175;28;20037;-81
2023/07/10 12:03:46;;;;;;;6.40;4.60;;;;;;;;;;5021778;28;20056;-81
2023/07/10 12:06:20;;;;;;;7.57;4.60;;;;;;;;;;5037451;28;20094;-82
2023/07/10 12:08:52;;;;;;;8.07;5.07;;;;;;;;;;5023475;28;20037;-81
2023/07/10 12:11:27;;;;;;;7.95;5.30;;;;;;;;;;5036822;28;20562;-82
2023/07/10 12:13:53;;;;;;;7.13;5.18;;;;;;;;;;5034354;28;20120;-81
2023/07/10 12:16:18;;;;;;;8.18;5.13;;;;;;;;;;5032094;28;20144;-81
2023/07/10 12:18:44;;;;;;;7.25;5.30;;;;;;;;;;5019938;28;20087;-82
2023/07/10 12:21:17;;;;;;;7.38;4.90;;;;;;;;;;5001741;28;20595;-83
2023/07/10 12:24:01;;;;;;;7.38;4.70;;;;;;;;;;5007057;28;20033;-84
2023/07/10 12:26:26;;;;;;;6.18;4.60;;;;;;;;;;5023349;28;20025;-80
2023/07/10 12:28:56;;;;;;;6.35;4.70;;;;;;;;;;5033565;28;20559;-80
2023/07/10 12:31:23;;;;;;;7.60;4.75;;;;;;;;;;5022067;28;20566;-82
2023/07/10 12:33:50;;;;;;;9.05;4.50;;;;;;;;;;5016685;28;20041;-81
2023/07/10 12:36:28;;;;;;;6.18;4.72;;;;;;;;;;5010601;28;20098;-83
2023/07/10 12:38:59;;;;;;;7.47;4.53;;;;;;;;;;5039720;28;20037;-80
2023/07/10 12:41:25;;;;;;;6.15;4.78;;;;;;;;;;5047419;28;20128;-80
2023/07/10 12:43:56;;;;;;;7.43;4.78;;;;;;;;;;5017456;28;20121;-83
2023/07/10 12:46:28;;;;;;;7.45;4.60;;;;;;;;;;5031379;28;20122;-80
2023/07/10 12:48:57;;;;;;;7.18;4.53;;;;;;;;;;5007564;28;20029;-80
2023/07/10 12:51:27;;;;;;;7.88;4.88;;;;;;;;;;5015841;28;20382;-81
2023/07/10 12:53:59;;;;;;;8.68;5.10;;;;;;;;;;5019467;28;20060;-81
2023/07/10 12:56:27;;;;;;;7.43;5.13;;;;;;;;;;5026671;28;20033;-80
2023/07/10 12:58:54;;;;;;;6.53;4.75;;;;;;;;;;5024703;28;20033;-81
2023/07/10 13:01:21;;;;;;;7.80;5.20;;;;;;;;;;5040271;28;20033;-81
2023/07/10 13:04:04;;;;;;;6.68;4.70;;;;;;;;;;5040934;28;20038;-82
2023/07/10 13:06:30;;;;;;;7.72;5.05;;;;;;;;;;5041786;28;20086;-80
2023/07/10 13:08:57;;;;;;;7.25;4.70;;;;;;;;;;5018978;28;20041;-82
2023/07/10 13:11:25;;;;;;;5.97;4.38;;;;;;;;;;5035228;28;20481;-82
2023/07/10 13:13:51;;;;;;;5.57;4.60;;;;;;;;;;5022434;28;20040;-81
2023/07/10 13:16:26;;;;;;;7.75;4.95;;;;;;;;;;5020424;28;20045;-83
2023/07/10 13:18:54;;;;;;;8.45;5.60;;;;;;;;;;5034235;28;20041;-83
2023/07/10 13:21:28;;;;;;;8.18;5.05;;;;;;;;;;5025562;28;20485;-82
2023/07/10 13:23:54;;;;;;;7.18;5.40;;;;;;;;;;5020393;28;20046;-82
2023/07/10 13:26:24;;;;;;;7.40;5.53;;;;;;;;;;5026051;28;20044;-81
2023/07/10 13:28:54;;;;;;;9.82;5.28;;;;;;;;;;5020086;28;20033;-81
2023/07/10 13:31:29;;;;;;;7.50;5.30;;;;;;;;;;5016732;28;20029;-81
2023/07/10 13:33:54;;;;;;;10.18;6.20;;;;;;;;;;5018866;28;20037;-81
2023/07/10 13:36:21;;;;;;;7.47;5.38;;;;;;;;;;5039549;28;20041;-82
2023/07/10 13:38:47;;;;;;;7.85;5.80;;;;;;;;;;5040948;28;20606;-82
2023/07/10 13:41:17;;;;;;;6.50;5.38;;;;;;;;;;5041715;28;20045;-82
2023/07/10 13:43:43;;;;;;;6.93;5.20;;;;;;;;;;5035611;28;20485;-82
2023/07/10 13:46:28;;;;;;;6.72;5.50;;;;;;;;;;5033824;28;20041;-82
2023/07/10 13:48:56;;;;;;;8.02;6.03;;;;;;;;;;5027215;28;20037;-82
2023/07/10 13:51:24;;;;;;;8.57;5.70;;;;;;;;;;5033049;28;20037;-82
2023/07/10 13:53:50;;;;;;;7.38;5.90;;;;;;;;;;5038261;28;20029;-82
2023/07/10 13:56:22;;;;;;;8.38;6.18;;;;;;;;;;5019874;28;20045;-82
2023/07/10 13:58:48;;;;;;;8.18;6.20;;;;;;;;;;5035706;28;20769;-82
2023/07/10 14:01:14;;;;;;;9.50;6.38;;;;;;;;;;5016300;28;20128;-82
2023/07/10 14:03:41;;;;;;;7.68;5.55;;;;;;;;;;5012815;28;20168;-81
2023/07/10 14:06:19;;;;;;;8.20;6.45;;;;;;;;;;5027020;28;20036;-81
2023/07/10 14:08:49;;;;;;;8.35;6.05;;;;;;;;;;5032587;28;20116;-82
2023/07/10 14:11:14;;;;;;;8.43;6.15;;;;;;;;;;5026844;28;20069;-81
2023/07/10 14:13:40;;;;;;;8.25;6.28;;;;;;;;;;5025704;28;20428;-81
2023/07/10 14:16:30;;;;;;;8.48;6.05;;;;;;;;;;5020309;28;20037;-81
2023/07/10 14:18:57;;;;;;;7.80;5.88;;;;;;;;;;4985284;28;20108;-81
2023/07/10 14:21:23;;;;;;;8.13;5.57;;;;;;;;;;4969898;28;20042;-81
2023/07/10 14:23:48;;;;;;;6.78;5.07;;;;;;;;;;4969454;28;20096;-82
2023/07/10 14:26:20;;;;;;;7.65;4.65;;;;;;;;;;4942258;28;20042;-82
2023/07/10 14:28:47;;;;;;;5.43;4.18;;;;;;;;;;4968460;28;20065;-82
2023/07/10 14:31:13;;;;;;;6.28;4.20;;;;;;;;;;4959150;28;20042;-81
2023/07/10 14:33:38;;;;;;;7.03;4.70;;;;;;;;;;4969478;28;20109;-87
2023/07/10 14:36:26;;;;;;;5.82;4.57;;;;;;;;;;4969117;28;20038;-85
2023/07/10 14:38:52;;;;;;;7.63;4.35;;;;;;;;;;4956886;28;20035;-85
2023/07/10 14:41:23;;;;;;;5.85;4.32;;;;;;;;;;4943069;28;22426;-86
2023/07/10 14:43:59;;;;;;;5.57;4.03;;;;;;;;;;4959154;28;20572;-88
2023/07/10 14:46:34;;;;;;;8.50;4.68;;;;;;;;;;4926507;28;20044;-85
2023/07/10 14:49:11;;;;;;;6.13;4.30;;;;;;;;;;4975137;28;20042;-85
2023/07/10 14:52:21;;;;;;;5.88;3.97;;;;;;;;;;4945642;28;20687;-86
2023/07/10 14:54:51;;;;;;;6.05;3.70;;;;;;;;;;4983689;28;20098;-85
2023/07/10 14:57:28;;;;;;;6.15;3.65;;;;;;;;;;5011735;28;20034;-86
2023/07/10 14:59:54;;;;;;;;;;;;;;;;;;5020584;28;20700;-86
2023/07/10 15:02:22;;;;;;;4.57;2.90;;;;;;;;;;5026270;28;19924;-87
2023/07/10 15:04:49;;;;;;;6.25;3.30;;;;;;;;;;5017286;28;20124;-87
2023/07/10 15:07:15;;;;;;;4.85;2.80;;;;;;;;;;5008828;28;20029;-85